sensor_id;sensor_type;location;lat;lon;timestamp;P1;durP1;ratioP1;P2;durP2;ratioP2
61036;SDS011;72210;47.076;15.430;2023-08-21T00:00:54;29.00;;;17.75;;
61036;SDS011;72210;47.076;15.430;2023-08-21T00:03:21;25.02;;;17.30;;
61036;SDS011;72210;47.076;15.430;2023-08-21T00:05:49;25.77;;;17.00;;
61036;SDS011;72210;47.076;15.430;2023-08-21T00:08:16;25.10;;;17.65;;
61036;SDS011;72210;47.076;15.430;2023-08-21T00:10:43;23.95;;;18.33;;
61036;SDS011;72210;47.076;15.430;2023-08-21T00:13:09;25.08;;;18.17;;
61036;SDS011;72210;47.076;15.430;2023-08-21T00:15:37;25.95;;;18.23;;
61036;SDS011;72210;47.076;15.430;2023-08-21T00:18:06;23.40;;;17.50;;
61036;SDS011;72210;47.076;15.430;2023-08-21T00:20:33;27.42;;;17.25;;
61036;SDS011;72210;47.076;15.430;2023-08-21T00:23:00;25.50;;;17.95;;
61036;SDS011;72210;47.076;15.430;2023-08-21T00:25:27;25.17;;;18.20;;
61036;SDS011;72210;47.076;15.430;2023-08-21T00:27:54;28.13;;;17.92;;
61036;SDS011;72210;47.076;15.430;2023-08-21T00:30:21;26.63;;;17.75;;
61036;SDS011;72210;47.076;15.430;2023-08-21T00:32:48;25.17;;;18.05;;
61036;SDS011;72210;47.076;15.430;2023-08-21T00:35:17;23.73;;;17.88;;
61036;SDS011;72210;47.076;15.430;2023-08-21T00:37:44;25.80;;;17.92;;
61036;SDS011;72210;47.076;15.430;2023-08-21T00:40:11;26.45;;;18.33;;
61036;SDS011;72210;47.076;15.430;2023-08-21T00:42:38;29.08;;;18.40;;
61036;SDS011;72210;47.076;15.430;2023-08-21T00:45:06;29.20;;;18.85;;
61036;SDS011;72210;47.076;15.430;2023-08-21T00:47:33;29.90;;;18.23;;
61036;SDS011;72210;47.076;15.430;2023-08-21T00:50:00;33.33;;;18.08;;
61036;SDS011;72210;47.076;15.430;2023-08-21T00:52:29;30.42;;;19.27;;
61036;SDS011;72210;47.076;15.430;2023-08-21T00:54:56;25.23;;;18.00;;
61036;SDS011;72210;47.076;15.430;2023-08-21T00:57:24;26.00;;;18.85;;
61036;SDS011;72210;47.076;15.430;2023-08-21T00:59:52;25.92;;;18.92;;
61036;SDS011;72210;47.076;15.430;2023-08-21T01:02:19;23.58;;;17.70;;
61036;SDS011;72210;47.076;15.430;2023-08-21T01:04:46;27.80;;;18.25;;
61036;SDS011;72210;47.076;15.430;2023-08-21T01:07:13;28.52;;;18.42;;
61036;SDS011;72210;47.076;15.430;2023-08-21T01:09:43;26.33;;;19.05;;
61036;SDS011;72210;47.076;15.430;2023-08-21T01:12:17;30.15;;;19.02;;
61036;SDS011;72210;47.076;15.430;2023-08-21T01:14:51;30.23;;;19.10;;
61036;SDS011;72210;47.076;15.430;2023-08-21T01:17:24;27.90;;;18.40;;
61036;SDS011;72210;47.076;15.430;2023-08-21T01:19:53;27.63;;;18.20;;
61036;SDS011;72210;47.076;15.430;2023-08-21T01:22:25;26.92;;;18.88;;
61036;SDS011;72210;47.076;15.430;2023-08-21T01:24:54;29.85;;;18.60;;
61036;SDS011;72210;47.076;15.430;2023-08-21T01:27:22;27.17;;;19.00;;
61036;SDS011;72210;47.076;15.430;2023-08-21T01:29:49;26.60;;;18.35;;
61036;SDS011;72210;47.076;15.430;2023-08-21T01:32:19;26.95;;;18.60;;
61036;SDS011;72210;47.076;15.430;2023-08-21T01:34:55;29.80;;;19.38;;
61036;SDS011;72210;47.076;15.430;2023-08-21T01:37:24;31.92;;;18.77;;
61036;SDS011;72210;47.076;15.430;2023-08-21T01:39:53;25.05;;;18.67;;
61036;SDS011;72210;47.076;15.430;2023-08-21T01:42:20;25.65;;;18.40;;
61036;SDS011;72210;47.076;15.430;2023-08-21T01:44:47;30.95;;;19.13;;
61036;SDS011;72210;47.076;15.430;2023-08-21T01:47:14;25.98;;;19.15;;
61036;SDS011;72210;47.076;15.430;2023-08-21T01:49:41;28.25;;;18.75;;
61036;SDS011;72210;47.076;15.430;2023-08-21T01:52:08;31.60;;;19.85;;
61036;SDS011;72210;47.076;15.430;2023-08-21T01:54:35;26.40;;;18.33;;
61036;SDS011;72210;47.076;15.430;2023-08-21T01:57:04;26.15;;;18.33;;
61036;SDS011;72210;47.076;15.430;2023-08-21T01:59:31;26.45;;;17.90;;
61036;SDS011;72210;47.076;15.430;2023-08-21T02:01:58;29.35;;;18.60;;
61036;SDS011;72210;47.076;15.430;2023-08-21T02:04:25;29.05;;;19.10;;
61036;SDS011;72210;47.076;15.430;2023-08-21T02:06:52;29.27;;;19.30;;
61036;SDS011;72210;47.076;15.430;2023-08-21T02:09:19;31.15;;;18.90;;
61036;SDS011;72210;47.076;15.430;2023-08-21T02:11:46;26.50;;;18.23;;
61036;SDS011;72210;47.076;15.430;2023-08-21T02:14:15;31.92;;;18.80;;
61036;SDS011;72210;47.076;15.430;2023-08-21T02:16:41;24.30;;;18.77;;
61036;SDS011;72210;47.076;15.430;2023-08-21T02:19:08;27.25;;;19.30;;
61036;SDS011;72210;47.076;15.430;2023-08-21T02:21:36;29.55;;;19.15;;
61036;SDS011;72210;47.076;15.430;2023-08-21T02:24:03;25.40;;;18.40;;
61036;SDS011;72210;47.076;15.430;2023-08-21T02:26:30;26.35;;;19.77;;
61036;SDS011;72210;47.076;15.430;2023-08-21T02:28:57;28.15;;;19.20;;
61036;SDS011;72210;47.076;15.430;2023-08-21T02:31:26;36.25;;;19.90;;
61036;SDS011;72210;47.076;15.430;2023-08-21T02:33:53;28.38;;;19.50;;
61036;SDS011;72210;47.076;15.430;2023-08-21T02:36:20;30.13;;;18.65;;
61036;SDS011;72210;47.076;15.430;2023-08-21T02:38:47;30.58;;;19.65;;
61036;SDS011;72210;47.076;15.430;2023-08-21T02:41:16;31.45;;;19.33;;
61036;SDS011;72210;47.076;15.430;2023-08-21T02:43:43;29.35;;;19.13;;
61036;SDS011;72210;47.076;15.430;2023-08-21T02:46:10;28.10;;;18.63;;
61036;SDS011;72210;47.076;15.430;2023-08-21T02:48:38;26.30;;;19.35;;
61036;SDS011;72210;47.076;15.430;2023-08-21T02:51:05;30.00;;;19.85;;
61036;SDS011;72210;47.076;15.430;2023-08-21T02:53:32;36.13;;;19.23;;
61036;SDS011;72210;47.076;15.430;2023-08-21T02:55:59;36.33;;;23.77;;
61036;SDS011;72210;47.076;15.430;2023-08-21T02:58:26;30.42;;;20.58;;
61036;SDS011;72210;47.076;15.430;2023-08-21T03:00:53;29.90;;;19.23;;
61036;SDS011;72210;47.076;15.430;2023-08-21T03:03:20;29.33;;;19.48;;
61036;SDS011;72210;47.076;15.430;2023-08-21T03:05:49;28.90;;;18.63;;
61036;SDS011;72210;47.076;15.430;2023-08-21T03:08:16;29.33;;;19.25;;
61036;SDS011;72210;47.076;15.430;2023-08-21T03:10:43;29.10;;;19.10;;
61036;SDS011;72210;47.076;15.430;2023-08-21T03:13:10;29.75;;;19.20;;
61036;SDS011;72210;47.076;15.430;2023-08-21T03:15:37;28.00;;;19.65;;
61036;SDS011;72210;47.076;15.430;2023-08-21T03:18:04;33.60;;;20.38;;
61036;SDS011;72210;47.076;15.430;2023-08-21T03:20:31;25.73;;;18.95;;
61036;SDS011;72210;47.076;15.430;2023-08-21T03:23:00;28.05;;;19.88;;
61036;SDS011;72210;47.076;15.430;2023-08-21T03:25:27;29.63;;;19.27;;
61036;SDS011;72210;47.076;15.430;2023-08-21T03:27:54;31.25;;;19.17;;
61036;SDS011;72210;47.076;15.430;2023-08-21T03:30:22;30.15;;;19.45;;
61036;SDS011;72210;47.076;15.430;2023-08-21T03:32:49;30.00;;;19.35;;
61036;SDS011;72210;47.076;15.430;2023-08-21T03:35:16;31.75;;;18.83;;
61036;SDS011;72210;47.076;15.430;2023-08-21T03:37:43;28.77;;;19.95;;
61036;SDS011;72210;47.076;15.430;2023-08-21T03:40:12;35.72;;;20.27;;
61036;SDS011;72210;47.076;15.430;2023-08-21T03:42:39;31.05;;;18.90;;
61036;SDS011;72210;47.076;15.430;2023-08-21T03:45:06;29.58;;;18.92;;
61036;SDS011;72210;47.076;15.430;2023-08-21T03:47:34;28.10;;;19.98;;
61036;SDS011;72210;47.076;15.430;2023-08-21T03:50:01;29.50;;;19.67;;
61036;SDS011;72210;47.076;15.430;2023-08-21T03:52:28;29.65;;;20.33;;
61036;SDS011;72210;47.076;15.430;2023-08-21T03:54:56;28.98;;;19.17;;
61036;SDS011;72210;47.076;15.430;2023-08-21T03:57:26;28.48;;;19.63;;
61036;SDS011;72210;47.076;15.430;2023-08-21T03:59:53;29.88;;;20.17;;
61036;SDS011;72210;47.076;15.430;2023-08-21T04:02:19;29.40;;;19.67;;
61036;SDS011;72210;47.076;15.430;2023-08-21T04:04:49;31.58;;;19.90;;
61036;SDS011;72210;47.076;15.430;2023-08-21T04:07:16;32.78;;;19.58;;
61036;SDS011;72210;47.076;15.430;2023-08-21T04:09:43;31.63;;;19.02;;
61036;SDS011;72210;47.076;15.430;2023-08-21T04:12:10;32.33;;;19.45;;
61036;SDS011;72210;47.076;15.430;2023-08-21T04:14:39;31.67;;;19.65;;
61036;SDS011;72210;47.076;15.430;2023-08-21T04:17:06;31.25;;;19.63;;
61036;SDS011;72210;47.076;15.430;2023-08-21T04:19:33;31.45;;;19.67;;
61036;SDS011;72210;47.076;15.430;2023-08-21T04:22:00;31.13;;;19.42;;
61036;SDS011;72210;47.076;15.430;2023-08-21T04:24:27;33.13;;;20.42;;
61036;SDS011;72210;47.076;15.430;2023-08-21T04:26:54;36.47;;;21.25;;
61036;SDS011;72210;47.076;15.430;2023-08-21T04:29:21;33.05;;;19.85;;
61036;SDS011;72210;47.076;15.430;2023-08-21T04:31:50;32.90;;;20.42;;
61036;SDS011;72210;47.076;15.430;2023-08-21T04:34:17;32.45;;;19.50;;
61036;SDS011;72210;47.076;15.430;2023-08-21T04:36:45;33.72;;;20.45;;
61036;SDS011;72210;47.076;15.430;2023-08-21T04:39:12;30.92;;;19.67;;
61036;SDS011;72210;47.076;15.430;2023-08-21T04:41:39;33.55;;;19.77;;
61036;SDS011;72210;47.076;15.430;2023-08-21T04:44:07;39.72;;;19.95;;
61036;SDS011;72210;47.076;15.430;2023-08-21T04:46:34;46.05;;;19.92;;
61036;SDS011;72210;47.076;15.430;2023-08-21T04:49:02;32.65;;;19.23;;
61036;SDS011;72210;47.076;15.430;2023-08-21T04:51:29;40.20;;;19.88;;
61036;SDS011;72210;47.076;15.430;2023-08-21T04:53:56;40.72;;;18.83;;
61036;SDS011;72210;47.076;15.430;2023-08-21T04:56:23;50.28;;;21.27;;
61036;SDS011;72210;47.076;15.430;2023-08-21T04:58:50;33.78;;;20.20;;
61036;SDS011;72210;47.076;15.430;2023-08-21T05:01:17;41.55;;;19.52;;
61036;SDS011;72210;47.076;15.430;2023-08-21T05:03:44;54.17;;;20.80;;
61036;SDS011;72210;47.076;15.430;2023-08-21T05:06:13;121.65;;;23.15;;
61036;SDS011;72210;47.076;15.430;2023-08-21T05:08:40;83.55;;;21.90;;
61036;SDS011;72210;47.076;15.430;2023-08-21T05:11:07;117.18;;;22.13;;
61036;SDS011;72210;47.076;15.430;2023-08-21T05:13:34;45.35;;;19.17;;
61036;SDS011;72210;47.076;15.430;2023-08-21T05:16:01;79.90;;;20.52;;
61036;SDS011;72210;47.076;15.430;2023-08-21T05:18:28;82.35;;;21.17;;
61036;SDS011;72210;47.076;15.430;2023-08-21T05:20:56;66.30;;;19.05;;
61036;SDS011;72210;47.076;15.430;2023-08-21T05:23:24;51.90;;;18.30;;
61036;SDS011;72210;47.076;15.430;2023-08-21T05:25:53;57.63;;;18.83;;
61036;SDS011;72210;47.076;15.430;2023-08-21T05:28:20;52.00;;;18.92;;
61036;SDS011;72210;47.076;15.430;2023-08-21T05:30:47;37.45;;;17.55;;
61036;SDS011;72210;47.076;15.430;2023-08-21T05:33:14;34.50;;;17.25;;
61036;SDS011;72210;47.076;15.430;2023-08-21T05:35:41;27.55;;;16.80;;
61036;SDS011;72210;47.076;15.430;2023-08-21T05:38:08;32.30;;;17.15;;
61036;SDS011;72210;47.076;15.430;2023-08-21T05:40:38;26.27;;;16.85;;
61036;SDS011;72210;47.076;15.430;2023-08-21T05:43:07;38.50;;;16.25;;
61036;SDS011;72210;47.076;15.430;2023-08-21T05:45:35;32.60;;;17.67;;
61036;SDS011;72210;47.076;15.430;2023-08-21T05:48:02;34.72;;;17.38;;
61036;SDS011;72210;47.076;15.430;2023-08-21T05:50:29;26.80;;;17.52;;
61036;SDS011;72210;47.076;15.430;2023-08-21T05:52:58;28.48;;;16.02;;
61036;SDS011;72210;47.076;15.430;2023-08-21T05:55:25;30.30;;;16.85;;
61036;SDS011;72210;47.076;15.430;2023-08-21T05:57:53;28.08;;;18.27;;
61036;SDS011;72210;47.076;15.430;2023-08-21T06:00:20;28.92;;;16.35;;
61036;SDS011;72210;47.076;15.430;2023-08-21T06:02:47;33.80;;;17.85;;
61036;SDS011;72210;47.076;15.430;2023-08-21T06:05:14;26.90;;;16.00;;
61036;SDS011;72210;47.076;15.430;2023-08-21T06:07:42;28.83;;;16.88;;
61036;SDS011;72210;47.076;15.430;2023-08-21T06:10:09;32.55;;;19.25;;
61036;SDS011;72210;47.076;15.430;2023-08-21T06:12:36;31.75;;;18.33;;
61036;SDS011;72210;47.076;15.430;2023-08-21T06:15:07;30.08;;;16.70;;
61036;SDS011;72210;47.076;15.430;2023-08-21T06:17:34;62.10;;;21.88;;
61036;SDS011;72210;47.076;15.430;2023-08-21T06:20:02;31.20;;;17.80;;
61036;SDS011;72210;47.076;15.430;2023-08-21T06:22:29;35.67;;;16.95;;
61036;SDS011;72210;47.076;15.430;2023-08-21T06:24:56;41.33;;;16.98;;
61036;SDS011;72210;47.076;15.430;2023-08-21T06:27:23;38.65;;;17.88;;
61036;SDS011;72210;47.076;15.430;2023-08-21T06:29:50;49.05;;;18.27;;
61036;SDS011;72210;47.076;15.430;2023-08-21T06:32:18;30.17;;;15.60;;
61036;SDS011;72210;47.076;15.430;2023-08-21T06:34:47;31.75;;;17.23;;
61036;SDS011;72210;47.076;15.430;2023-08-21T06:37:14;63.08;;;20.77;;
61036;SDS011;72210;47.076;15.430;2023-08-21T06:39:41;52.83;;;19.77;;
61036;SDS011;72210;47.076;15.430;2023-08-21T06:42:08;53.60;;;19.55;;
61036;SDS011;72210;47.076;15.430;2023-08-21T06:44:35;27.02;;;15.68;;
61036;SDS011;72210;47.076;15.430;2023-08-21T06:47:02;60.75;;;20.55;;
61036;SDS011;72210;47.076;15.430;2023-08-21T06:49:30;31.80;;;16.95;;
61036;SDS011;72210;47.076;15.430;2023-08-21T06:51:58;44.63;;;18.27;;
61036;SDS011;72210;47.076;15.430;2023-08-21T06:54:25;25.67;;;14.77;;
61036;SDS011;72210;47.076;15.430;2023-08-21T06:56:52;26.45;;;14.13;;
61036;SDS011;72210;47.076;15.430;2023-08-21T06:59:19;41.88;;;15.60;;
61036;SDS011;72210;47.076;15.430;2023-08-21T07:01:46;33.75;;;15.15;;
61036;SDS011;72210;47.076;15.430;2023-08-21T07:04:13;44.58;;;18.45;;
61036;SDS011;72210;47.076;15.430;2023-08-21T07:06:42;40.50;;;19.30;;
61036;SDS011;72210;47.076;15.430;2023-08-21T07:09:09;22.08;;;14.60;;
61036;SDS011;72210;47.076;15.430;2023-08-21T07:11:36;22.23;;;14.20;;
61036;SDS011;72210;47.076;15.430;2023-08-21T07:14:03;26.85;;;15.57;;
61036;SDS011;72210;47.076;15.430;2023-08-21T07:16:30;29.13;;;14.75;;
61036;SDS011;72210;47.076;15.430;2023-08-21T07:18:57;28.08;;;14.02;;
61036;SDS011;72210;47.076;15.430;2023-08-21T07:21:24;20.92;;;14.00;;
61036;SDS011;72210;47.076;15.430;2023-08-21T07:24:02;22.58;;;13.50;;
61036;SDS011;72210;47.076;15.430;2023-08-21T07:26:32;27.23;;;14.57;;
61036;SDS011;72210;47.076;15.430;2023-08-21T07:28:58;36.08;;;14.48;;
61036;SDS011;72210;47.076;15.430;2023-08-21T07:31:25;59.88;;;17.60;;
61036;SDS011;72210;47.076;15.430;2023-08-21T07:33:53;23.98;;;13.50;;
61036;SDS011;72210;47.076;15.430;2023-08-21T07:36:20;54.53;;;17.50;;
61036;SDS011;72210;47.076;15.430;2023-08-21T07:38:47;26.17;;;13.95;;
61036;SDS011;72210;47.076;15.430;2023-08-21T07:41:16;28.35;;;14.77;;
61036;SDS011;72210;47.076;15.430;2023-08-21T07:43:43;25.20;;;14.32;;
61036;SDS011;72210;47.076;15.430;2023-08-21T07:46:11;53.30;;;15.75;;
61036;SDS011;72210;47.076;15.430;2023-08-21T07:48:39;34.25;;;13.70;;
61036;SDS011;72210;47.076;15.430;2023-08-21T07:51:06;33.05;;;14.77;;
61036;SDS011;72210;47.076;15.430;2023-08-21T07:53:33;23.02;;;13.20;;
61036;SDS011;72210;47.076;15.430;2023-08-21T07:56:01;28.05;;;13.57;;
61036;SDS011;72210;47.076;15.430;2023-08-21T07:58:30;57.83;;;20.63;;
61036;SDS011;72210;47.076;15.430;2023-08-21T08:00:57;42.08;;;18.27;;
61036;SDS011;72210;47.076;15.430;2023-08-21T08:03:24;31.45;;;13.98;;
61036;SDS011;72210;47.076;15.430;2023-08-21T08:05:51;24.92;;;13.55;;
61036;SDS011;72210;47.076;15.430;2023-08-21T08:08:21;31.30;;;15.23;;
61036;SDS011;72210;47.076;15.430;2023-08-21T08:10:48;27.73;;;13.68;;
61036;SDS011;72210;47.076;15.430;2023-08-21T08:13:15;28.65;;;13.82;;
61036;SDS011;72210;47.076;15.430;2023-08-21T08:15:44;23.58;;;13.25;;
61036;SDS011;72210;47.076;15.430;2023-08-21T08:18:11;29.63;;;13.93;;
61036;SDS011;72210;47.076;15.430;2023-08-21T08:20:39;27.42;;;14.05;;
61036;SDS011;72210;47.076;15.430;2023-08-21T08:23:07;19.25;;;12.77;;
61036;SDS011;72210;47.076;15.430;2023-08-21T08:25:34;30.50;;;13.35;;
61036;SDS011;72210;47.076;15.430;2023-08-21T08:28:02;22.95;;;13.45;;
61036;SDS011;72210;47.076;15.430;2023-08-21T08:30:29;24.35;;;12.13;;
61036;SDS011;72210;47.076;15.430;2023-08-21T08:32:57;20.65;;;11.80;;
61036;SDS011;72210;47.076;15.430;2023-08-21T08:35:24;17.80;;;10.95;;
61036;SDS011;72210;47.076;15.430;2023-08-21T08:37:51;25.42;;;11.73;;
61036;SDS011;72210;47.076;15.430;2023-08-21T08:40:19;17.35;;;10.30;;
61036;SDS011;72210;47.076;15.430;2023-08-21T08:42:46;24.13;;;10.90;;
61036;SDS011;72210;47.076;15.430;2023-08-21T08:45:14;28.17;;;13.18;;
61036;SDS011;72210;47.076;15.430;2023-08-21T08:47:41;24.23;;;10.80;;
61036;SDS011;72210;47.076;15.430;2023-08-21T08:50:11;26.85;;;18.73;;
61036;SDS011;72210;47.076;15.430;2023-08-21T08:52:39;27.90;;;11.82;;
61036;SDS011;72210;47.076;15.430;2023-08-21T08:55:07;24.88;;;11.15;;
61036;SDS011;72210;47.076;15.430;2023-08-21T08:57:35;19.60;;;10.63;;
61036;SDS011;72210;47.076;15.430;2023-08-21T09:00:03;20.05;;;10.90;;
61036;SDS011;72210;47.076;15.430;2023-08-21T09:02:31;23.08;;;10.85;;
61036;SDS011;72210;47.076;15.430;2023-08-21T09:04:58;18.10;;;11.30;;
61036;SDS011;72210;47.076;15.430;2023-08-21T09:07:28;17.13;;;10.98;;
61036;SDS011;72210;47.076;15.430;2023-08-21T09:09:56;22.92;;;10.80;;
61036;SDS011;72210;47.076;15.430;2023-08-21T09:12:23;27.63;;;10.55;;
61036;SDS011;72210;47.076;15.430;2023-08-21T09:14:51;23.35;;;12.85;;
61036;SDS011;72210;47.076;15.430;2023-08-21T09:17:18;21.63;;;11.02;;
61036;SDS011;72210;47.076;15.430;2023-08-21T09:19:45;24.00;;;12.32;;
61036;SDS011;72210;47.076;15.430;2023-08-21T09:22:14;19.70;;;11.98;;
61036;SDS011;72210;47.076;15.430;2023-08-21T09:27:30;18.33;;;10.15;;
61036;SDS011;72210;47.076;15.430;2023-08-21T09:29:57;22.17;;;9.77;;
61036;SDS011;72210;47.076;15.430;2023-08-21T09:32:24;18.67;;;10.18;;
61036;SDS011;72210;47.076;15.430;2023-08-21T09:34:52;20.20;;;9.82;;
61036;SDS011;72210;47.076;15.430;2023-08-21T09:37:19;19.85;;;9.68;;
61036;SDS011;72210;47.076;15.430;2023-08-21T09:39:46;17.30;;;8.85;;
61036;SDS011;72210;47.076;15.430;2023-08-21T09:42:16;16.00;;;8.55;;
61036;SDS011;72210;47.076;15.430;2023-08-21T09:44:45;17.92;;;9.45;;
61036;SDS011;72210;47.076;15.430;2023-08-21T09:47:17;20.20;;;9.20;;
61036;SDS011;72210;47.076;15.430;2023-08-21T09:49:49;14.20;;;8.10;;
61036;SDS011;72210;47.076;15.430;2023-08-21T09:52:16;15.13;;;7.90;;
61036;SDS011;72210;47.076;15.430;2023-08-21T09:54:43;19.60;;;8.80;;
61036;SDS011;72210;47.076;15.430;2023-08-21T09:57:11;15.90;;;7.53;;
61036;SDS011;72210;47.076;15.430;2023-08-21T09:59:40;13.90;;;7.03;;
61036;SDS011;72210;47.076;15.430;2023-08-21T10:02:09;14.88;;;7.35;;
61036;SDS011;72210;47.076;15.430;2023-08-21T10:04:37;21.10;;;7.82;;
61036;SDS011;72210;47.076;15.430;2023-08-21T10:07:06;17.63;;;7.80;;
61036;SDS011;72210;47.076;15.430;2023-08-21T10:09:34;20.60;;;7.50;;
61036;SDS011;72210;47.076;15.430;2023-08-21T10:12:03;14.13;;;6.80;;
61036;SDS011;72210;47.076;15.430;2023-08-21T10:14:31;13.30;;;6.15;;
61036;SDS011;72210;47.076;15.430;2023-08-21T10:17:02;14.68;;;6.88;;
61036;SDS011;72210;47.076;15.430;2023-08-21T10:19:32;16.35;;;6.60;;
61036;SDS011;72210;47.076;15.430;2023-08-21T10:22:01;11.90;;;6.40;;
61036;SDS011;72210;47.076;15.430;2023-08-21T10:24:34;17.38;;;6.32;;
61036;SDS011;72210;47.076;15.430;2023-08-21T10:27:02;22.98;;;6.20;;
61036;SDS011;72210;47.076;15.430;2023-08-21T10:29:29;12.73;;;6.10;;
61036;SDS011;72210;47.076;15.430;2023-08-21T10:32:01;13.15;;;6.03;;
61036;SDS011;72210;47.076;15.430;2023-08-21T10:34:33;13.52;;;6.45;;
61036;SDS011;72210;47.076;15.430;2023-08-21T10:37:05;10.70;;;5.60;;
61036;SDS011;72210;47.076;15.430;2023-08-21T10:39:35;12.63;;;5.72;;
61036;SDS011;72210;47.076;15.430;2023-08-21T10:42:04;11.90;;;5.82;;
61036;SDS011;72210;47.076;15.430;2023-08-21T10:44:37;13.07;;;6.45;;
61036;SDS011;72210;47.076;15.430;2023-08-21T10:47:15;11.43;;;5.78;;
61036;SDS011;72210;47.076;15.430;2023-08-21T10:49:44;14.07;;;5.65;;
61036;SDS011;72210;47.076;15.430;2023-08-21T10:52:13;11.60;;;6.20;;
61036;SDS011;72210;47.076;15.430;2023-08-21T10:54:45;16.13;;;6.25;;
61036;SDS011;72210;47.076;15.430;2023-08-21T10:57:14;11.43;;;5.75;;
61036;SDS011;72210;47.076;15.430;2023-08-21T10:59:54;10.52;;;5.60;;
61036;SDS011;72210;47.076;15.430;2023-08-21T11:02:25;12.27;;;6.22;;
61036;SDS011;72210;47.076;15.430;2023-08-21T11:04:53;14.52;;;5.68;;
61036;SDS011;72210;47.076;15.430;2023-08-21T11:07:20;17.13;;;6.28;;
61036;SDS011;72210;47.076;15.430;2023-08-21T11:09:47;11.63;;;5.47;;
61036;SDS011;72210;47.076;15.430;2023-08-21T11:12:16;11.80;;;5.43;;
61036;SDS011;72210;47.076;15.430;2023-08-21T11:14:44;12.43;;;5.47;;
61036;SDS011;72210;47.076;15.430;2023-08-21T11:17:12;17.00;;;5.50;;
61036;SDS011;72210;47.076;15.430;2023-08-21T11:19:41;13.07;;;6.00;;
61036;SDS011;72210;47.076;15.430;2023-08-21T11:22:09;15.40;;;5.65;;
61036;SDS011;72210;47.076;15.430;2023-08-21T11:24:41;12.13;;;5.32;;
61036;SDS011;72210;47.076;15.430;2023-08-21T11:27:11;13.32;;;5.55;;
61036;SDS011;72210;47.076;15.430;2023-08-21T11:29:40;15.82;;;6.45;;
61036;SDS011;72210;47.076;15.430;2023-08-21T11:32:15;11.43;;;5.40;;
61036;SDS011;72210;47.076;15.430;2023-08-21T11:34:49;12.57;;;5.15;;
61036;SDS011;72210;47.076;15.430;2023-08-21T11:37:17;9.20;;;4.57;;
61036;SDS011;72210;47.076;15.430;2023-08-21T11:39:46;13.70;;;4.70;;
61036;SDS011;72210;47.076;15.430;2023-08-21T11:42:15;11.25;;;5.13;;
61036;SDS011;72210;47.076;15.430;2023-08-21T11:44:47;11.77;;;5.68;;
61036;SDS011;72210;47.076;15.430;2023-08-21T11:47:16;13.02;;;5.18;;
61036;SDS011;72210;47.076;15.430;2023-08-21T11:49:49;9.13;;;4.45;;
61036;SDS011;72210;47.076;15.430;2023-08-21T11:52:18;9.35;;;4.30;;
61036;SDS011;72210;47.076;15.430;2023-08-21T11:54:47;10.27;;;4.13;;
61036;SDS011;72210;47.076;15.430;2023-08-21T11:57:16;10.48;;;4.60;;
61036;SDS011;72210;47.076;15.430;2023-08-21T11:59:49;12.57;;;5.45;;
61036;SDS011;72210;47.076;15.430;2023-08-21T12:02:17;11.18;;;4.72;;
61036;SDS011;72210;47.076;15.430;2023-08-21T12:04:45;8.88;;;4.10;;
61036;SDS011;72210;47.076;15.430;2023-08-21T12:07:21;9.25;;;4.38;;
61036;SDS011;72210;47.076;15.430;2023-08-21T12:09:49;11.52;;;4.63;;
61036;SDS011;72210;47.076;15.430;2023-08-21T12:12:16;9.95;;;4.82;;
61036;SDS011;72210;47.076;15.430;2023-08-21T12:14:43;11.18;;;4.90;;
61036;SDS011;72210;47.076;15.430;2023-08-21T12:17:10;9.73;;;4.60;;
61036;SDS011;72210;47.076;15.430;2023-08-21T12:19:38;10.40;;;4.70;;
61036;SDS011;72210;47.076;15.430;2023-08-21T12:22:07;10.98;;;4.78;;
61036;SDS011;72210;47.076;15.430;2023-08-21T12:24:34;11.25;;;5.50;;
61036;SDS011;72210;47.076;15.430;2023-08-21T12:27:02;9.20;;;4.57;;
61036;SDS011;72210;47.076;15.430;2023-08-21T12:29:29;7.82;;;3.88;;
61036;SDS011;72210;47.076;15.430;2023-08-21T12:31:56;15.30;;;4.80;;
61036;SDS011;72210;47.076;15.430;2023-08-21T12:34:23;9.30;;;4.47;;
61036;SDS011;72210;47.076;15.430;2023-08-21T12:36:51;7.93;;;4.25;;
61036;SDS011;72210;47.076;15.430;2023-08-21T12:39:19;11.02;;;4.38;;
61036;SDS011;72210;47.076;15.430;2023-08-21T12:41:47;12.82;;;4.32;;
61036;SDS011;72210;47.076;15.430;2023-08-21T12:44:14;8.60;;;4.15;;
61036;SDS011;72210;47.076;15.430;2023-08-21T12:46:41;10.40;;;4.40;;
61036;SDS011;72210;47.076;15.430;2023-08-21T12:49:08;9.77;;;4.80;;
61036;SDS011;72210;47.076;15.430;2023-08-21T12:51:36;12.60;;;4.60;;
61036;SDS011;72210;47.076;15.430;2023-08-21T12:54:03;10.90;;;4.85;;
61036;SDS011;72210;47.076;15.430;2023-08-21T12:56:33;13.18;;;4.70;;
61036;SDS011;72210;47.076;15.430;2023-08-21T12:59:00;8.73;;;4.07;;
61036;SDS011;72210;47.076;15.430;2023-08-21T13:01:27;9.45;;;4.32;;
61036;SDS011;72210;47.076;15.430;2023-08-21T13:03:54;9.50;;;4.90;;
61036;SDS011;72210;47.076;15.430;2023-08-21T13:06:21;9.57;;;4.22;;
61036;SDS011;72210;47.076;15.430;2023-08-21T13:08:48;9.18;;;4.07;;
61036;SDS011;72210;47.076;15.430;2023-08-21T13:11:15;12.02;;;4.65;;
61036;SDS011;72210;47.076;15.430;2023-08-21T13:13:43;8.52;;;3.90;;
61036;SDS011;72210;47.076;15.430;2023-08-21T13:16:10;9.55;;;4.30;;
61036;SDS011;72210;47.076;15.430;2023-08-21T13:18:37;10.57;;;4.07;;
61036;SDS011;72210;47.076;15.430;2023-08-21T13:21:04;9.75;;;4.35;;
61036;SDS011;72210;47.076;15.430;2023-08-21T13:23:31;10.32;;;4.30;;
61036;SDS011;72210;47.076;15.430;2023-08-21T13:25:59;8.35;;;4.40;;
61036;SDS011;72210;47.076;15.430;2023-08-21T13:28:26;9.25;;;4.40;;
61036;SDS011;72210;47.076;15.430;2023-08-21T13:30:54;11.85;;;4.30;;
61036;SDS011;72210;47.076;15.430;2023-08-21T13:33:21;9.55;;;4.18;;
61036;SDS011;72210;47.076;15.430;2023-08-21T13:35:48;14.68;;;4.38;;
61036;SDS011;72210;47.076;15.430;2023-08-21T13:38:16;13.88;;;4.65;;
61036;SDS011;72210;47.076;15.430;2023-08-21T13:40:43;10.88;;;4.70;;
61036;SDS011;72210;47.076;15.430;2023-08-21T13:43:10;12.77;;;5.18;;
61036;SDS011;72210;47.076;15.430;2023-08-21T13:45:37;9.85;;;4.00;;
61036;SDS011;72210;47.076;15.430;2023-08-21T13:48:06;10.23;;;4.57;;
61036;SDS011;72210;47.076;15.430;2023-08-21T13:50:34;9.77;;;4.25;;
61036;SDS011;72210;47.076;15.430;2023-08-21T13:53:01;11.15;;;4.20;;
61036;SDS011;72210;47.076;15.430;2023-08-21T13:55:28;9.63;;;3.95;;
61036;SDS011;72210;47.076;15.430;2023-08-21T13:57:56;11.50;;;4.50;;
61036;SDS011;72210;47.076;15.430;2023-08-21T14:00:23;8.88;;;4.10;;
61036;SDS011;72210;47.076;15.430;2023-08-21T14:02:50;8.23;;;4.30;;
61036;SDS011;72210;47.076;15.430;2023-08-21T14:05:18;9.13;;;4.30;;
61036;SDS011;72210;47.076;15.430;2023-08-21T14:07:48;11.27;;;5.07;;
61036;SDS011;72210;47.076;15.430;2023-08-21T14:10:15;10.35;;;4.57;;
61036;SDS011;72210;47.076;15.430;2023-08-21T14:12:42;12.55;;;4.65;;
61036;SDS011;72210;47.076;15.430;2023-08-21T14:15:10;10.85;;;4.85;;
61036;SDS011;72210;47.076;15.430;2023-08-21T14:17:37;9.48;;;4.72;;
61036;SDS011;72210;47.076;15.430;2023-08-21T14:20:06;18.33;;;5.00;;